createdAt,value
2023-02-23T00:01:47.847Z,15.40
2023-02-23T00:04:36.749Z,15.40
2023-02-23T00:07:27.142Z,15.40
2023-02-23T00:10:18.453Z,15.40
2023-02-23T00:13:06.928Z,15.30
2023-02-23T00:15:55.556Z,15.30
2023-02-23T00:18:48.582Z,15.40
2023-02-23T00:21:36.868Z,15.30
2023-02-23T00:24:27.097Z,15.30
2023-02-23T00:27:21.149Z,15.30
2023-02-23T00:30:11.559Z,15.30
2023-02-23T00:32:59.828Z,15.30
2023-02-23T00:35:49.544Z,15.30
2023-02-23T00:38:39.991Z,15.30
2023-02-23T00:41:29.705Z,15.30
2023-02-23T00:44:18.581Z,15.30
2023-02-23T00:47:06.877Z,15.30
2023-02-23T00:49:55.164Z,15.30
2023-02-23T00:52:45.492Z,15.30
2023-02-23T00:55:33.833Z,15.30
2023-02-23T00:58:22.220Z,15.30
2023-02-23T01:01:13.827Z,15.30
2023-02-23T01:04:03.093Z,15.20
2023-02-23T01:06:51.375Z,15.20
2023-02-23T01:09:40.997Z,15.20
2023-02-23T01:12:29.337Z,15.20
2023-02-23T01:15:18.666Z,15.20
2023-02-23T01:18:07.216Z,15.20
2023-02-23T01:20:55.383Z,15.20
2023-02-23T01:23:43.750Z,15.30
2023-02-23T01:26:35.855Z,15.20
2023-02-23T01:29:24.396Z,15.20
2023-02-23T01:32:12.716Z,15.20
2023-02-23T01:35:00.989Z,15.20
2023-02-23T01:37:49.582Z,15.20
2023-02-23T01:40:39.333Z,15.20
2023-02-23T01:43:28.969Z,15.10
2023-02-23T01:46:17.425Z,15.20
2023-02-23T01:49:07.621Z,15.20
2023-02-23T01:52:00.563Z,15.10
2023-02-23T01:54:53.354Z,15.10
2023-02-23T01:57:43.012Z,15.10
2023-02-23T02:00:36.814Z,15.10
2023-02-23T02:03:29.653Z,15.00
2023-02-23T02:06:20.936Z,15.10
2023-02-23T02:09:17.608Z,15.00
2023-02-23T02:12:08.687Z,15.00
2023-02-23T02:14:57.183Z,15.00
2023-02-23T02:17:56.906Z,15.00
2023-02-23T02:21:25.110Z,15.00
2023-02-23T02:24:47.523Z,15.10
2023-02-23T02:28:04.433Z,15.00
2023-02-23T02:31:22.152Z,15.00
2023-02-23T02:34:42.621Z,15.00
2023-02-23T02:38:12.676Z,15.00
2023-02-23T02:41:06.915Z,15.00
2023-02-23T02:44:02.199Z,14.90
2023-02-23T02:46:56.065Z,14.90
2023-02-23T02:49:49.408Z,14.90
2023-02-23T02:52:42.133Z,14.90
2023-02-23T02:55:34.466Z,14.90
2023-02-23T02:58:25.671Z,14.90
2023-02-23T03:01:33.254Z,14.90
2023-02-23T03:04:41.193Z,14.90
2023-02-23T03:07:54.266Z,14.90
2023-02-23T03:11:06.115Z,14.90
2023-02-23T03:14:30.053Z,14.90
2023-02-23T03:17:44.402Z,14.80
2023-02-23T03:21:02.167Z,14.80
2023-02-23T03:24:21.041Z,14.90
2023-02-23T03:27:36.900Z,14.90
2023-02-23T03:30:48.226Z,14.80
2023-02-23T03:34:02.306Z,14.80
2023-02-23T03:37:13.485Z,14.80
2023-02-23T03:40:26.680Z,14.80
2023-02-23T03:43:36.515Z,14.80
2023-02-23T03:46:47.941Z,14.80
2023-02-23T03:49:57.610Z,14.70
2023-02-23T03:53:09.605Z,14.80
2023-02-23T03:56:17.678Z,14.70
2023-02-23T03:59:26.709Z,14.70
2023-02-23T04:02:36.300Z,14.70
2023-02-23T04:05:43.909Z,14.70
2023-02-23T04:08:54.321Z,14.70
2023-02-23T04:12:05.373Z,14.70
2023-02-23T04:15:01.023Z,14.70
2023-02-23T04:17:50.971Z,14.70
2023-02-23T04:20:39.244Z,14.70
2023-02-23T04:23:28.397Z,14.70
2023-02-23T04:26:16.769Z,14.60
2023-02-23T04:29:04.962Z,14.70
2023-02-23T04:31:54.223Z,14.60
2023-02-23T04:34:44.259Z,14.70
2023-02-23T04:37:32.604Z,14.60
2023-02-23T04:40:23.307Z,14.70
2023-02-23T04:43:13.627Z,14.60
2023-02-23T04:46:02.145Z,14.60
2023-02-23T04:48:50.460Z,14.60
2023-02-23T04:51:40.023Z,14.70
2023-02-23T04:54:28.373Z,14.60
2023-02-23T04:57:16.747Z,14.60
2023-02-23T05:00:06.464Z,14.60
2023-02-23T05:02:54.814Z,14.60
2023-02-23T05:05:43.174Z,14.60
2023-02-23T05:08:32.827Z,14.60
2023-02-23T05:11:21.252Z,14.60
2023-02-23T05:14:10.325Z,14.50
2023-02-23T05:16:58.664Z,14.60
2023-02-23T05:19:47.008Z,14.60
2023-02-23T05:22:35.386Z,14.50
2023-02-23T05:25:25.448Z,14.50
2023-02-23T05:28:13.775Z,14.50
2023-02-23T05:31:03.716Z,14.50
2023-02-23T05:33:52.247Z,14.40
2023-02-23T05:36:40.520Z,14.40
2023-02-23T05:39:28.932Z,14.50
2023-02-23T05:42:18.593Z,14.40
2023-02-23T05:45:08.261Z,14.40
2023-02-23T05:47:56.734Z,14.40
2023-02-23T05:50:45.069Z,14.30
2023-02-23T05:53:33.461Z,14.40
2023-02-23T05:56:22.053Z,14.30
2023-02-23T05:59:13.183Z,14.30
2023-02-23T06:02:01.466Z,14.30
2023-02-23T06:04:49.702Z,14.30
2023-02-23T06:07:37.961Z,14.30
2023-02-23T06:10:26.214Z,14.30
2023-02-23T06:13:15.650Z,14.30
2023-02-23T06:16:06.125Z,14.30
2023-02-23T06:18:54.657Z,14.30
2023-02-23T06:21:42.939Z,14.30
2023-02-23T06:24:31.267Z,14.30
2023-02-23T06:27:19.604Z,14.30
2023-02-23T06:30:08.863Z,14.30
2023-02-23T06:32:58.590Z,14.30
2023-02-23T06:35:46.976Z,14.30
2023-02-23T06:38:35.456Z,14.30
2023-02-23T06:41:23.653Z,14.30
2023-02-23T06:44:12.032Z,14.30
2023-02-23T06:47:00.361Z,14.30
2023-02-23T06:49:50.372Z,14.30
2023-02-23T06:52:39.327Z,14.30
2023-02-23T06:55:27.798Z,14.30
2023-02-23T06:58:16.215Z,14.30
2023-02-23T07:01:05.894Z,14.30
2023-02-23T07:03:54.243Z,14.30
2023-02-23T07:06:44.041Z,14.40
2023-02-23T07:09:32.865Z,14.40
2023-02-23T07:12:21.163Z,14.50
2023-02-23T07:15:10.650Z,14.50
2023-02-23T07:17:58.953Z,14.50
2023-02-23T07:20:47.340Z,14.60
2023-02-23T07:23:37.104Z,14.60
2023-02-23T07:26:25.417Z,14.60
2023-02-23T07:29:14.521Z,14.60
2023-02-23T07:32:02.905Z,14.70
2023-02-23T07:34:53.689Z,14.70
2023-02-23T07:37:42.260Z,14.70
2023-02-23T07:40:31.984Z,14.80
2023-02-23T07:43:22.865Z,14.80
2023-02-23T07:46:11.087Z,14.80
2023-02-23T07:48:59.569Z,14.80
2023-02-23T07:51:48.047Z,14.80
2023-02-23T07:54:36.353Z,14.80
2023-02-23T07:57:26.963Z,14.90
2023-02-23T08:00:16.032Z,15.00
2023-02-23T08:03:04.350Z,15.00
2023-02-23T08:05:52.542Z,15.00
2023-02-23T08:08:40.791Z,15.10
2023-02-23T08:11:29.704Z,15.20
2023-02-23T08:14:22.068Z,15.20
2023-02-23T08:17:10.867Z,15.30
2023-02-23T08:19:59.214Z,15.30
2023-02-23T08:22:49.943Z,15.40
2023-02-23T08:25:38.294Z,15.50
2023-02-23T08:28:26.757Z,15.60
2023-02-23T08:31:19.511Z,15.70
2023-02-23T08:34:08.102Z,15.70
2023-02-23T08:36:56.660Z,15.70
2023-02-23T08:39:45.310Z,15.80
2023-02-23T08:42:33.689Z,16.00
2023-02-23T08:45:22.082Z,16.10
2023-02-23T08:48:11.709Z,16.20
2023-02-23T08:51:01.960Z,16.30
2023-02-23T08:53:50.332Z,16.40
2023-02-23T08:56:38.722Z,16.40
2023-02-23T08:59:27.296Z,16.50
2023-02-23T09:02:16.489Z,16.50
2023-02-23T09:05:06.890Z,16.60
2023-02-23T09:07:55.303Z,16.60
2023-02-23T09:10:44.809Z,16.60
2023-02-23T09:13:33.388Z,16.60
2023-02-23T09:16:21.676Z,16.70
2023-02-23T09:19:10.040Z,16.70
2023-02-23T09:21:59.863Z,16.80
2023-02-23T09:24:48.284Z,16.80
2023-02-23T09:27:36.793Z,16.80
2023-02-23T09:30:25.382Z,16.90
2023-02-23T09:33:14.527Z,17.00
2023-02-23T09:36:06.258Z,17.10
2023-02-23T09:38:57.930Z,17.20
2023-02-23T09:42:17.349Z,17.30
2023-02-23T09:45:15.677Z,17.40
2023-02-23T09:48:20.348Z,17.50
2023-02-23T09:51:16.510Z,17.70
2023-02-23T09:54:11.460Z,17.80
2023-02-23T09:57:05.013Z,18.00
2023-02-23T09:59:53.414Z,18.20
2023-02-23T10:03:00.501Z,18.40
2023-02-23T10:05:53.321Z,18.70
2023-02-23T10:08:50.159Z,18.90
2023-02-23T10:11:46.604Z,19.20
2023-02-23T10:14:56.968Z,19.50
2023-02-23T10:17:55.252Z,19.80
2023-02-23T10:20:50.988Z,20.10
2023-02-23T10:23:44.140Z,20.60
2023-02-23T10:26:38.583Z,20.80
2023-02-23T10:29:33.484Z,21.10
2023-02-23T10:32:29.518Z,21.30
2023-02-23T10:35:21.643Z,21.70
2023-02-23T10:38:17.059Z,21.90
2023-02-23T10:41:06.027Z,22.30
2023-02-23T10:43:55.122Z,22.50
2023-02-23T10:46:47.111Z,22.80
2023-02-23T10:49:42.303Z,23.00
2023-02-23T10:52:34.524Z,23.20
2023-02-23T10:55:28.673Z,23.40
2023-02-23T10:58:19.702Z,23.60
2023-02-23T11:01:08.398Z,23.70
2023-02-23T11:04:05.990Z,23.80
2023-02-23T11:07:09.479Z,24.00
2023-02-23T11:09:58.212Z,24.20
2023-02-23T11:12:46.557Z,24.20
2023-02-23T11:15:50.633Z,24.30
2023-02-23T11:18:41.900Z,24.40
2023-02-23T11:21:34.512Z,24.60
2023-02-23T11:24:26.270Z,24.80
2023-02-23T11:27:23.601Z,24.80
2023-02-23T11:30:14.112Z,24.90
2023-02-23T11:33:11.053Z,24.90
2023-02-23T11:36:00.861Z,25.00
2023-02-23T11:39:05.359Z,25.00
2023-02-23T11:42:17.543Z,25.00
2023-02-23T11:45:08.218Z,24.90
2023-02-23T11:48:00.262Z,24.90
2023-02-23T11:50:50.468Z,25.00
2023-02-23T11:53:45.354Z,25.00
2023-02-23T11:56:36.625Z,25.10
2023-02-23T11:59:31.093Z,25.20
2023-02-23T12:02:25.043Z,25.20
2023-02-23T12:05:24.563Z,25.20
2023-02-23T12:08:18.439Z,25.20
2023-02-23T12:11:12.296Z,25.20
2023-02-23T12:14:05.723Z,25.30
2023-02-23T12:17:01.144Z,25.30
2023-02-23T12:19:54.105Z,25.30
2023-02-23T12:22:46.286Z,25.30
2023-02-23T12:25:39.823Z,25.30
2023-02-23T12:28:35.052Z,25.30
2023-02-23T12:31:30.019Z,25.20
2023-02-23T12:34:25.895Z,25.20
2023-02-23T12:37:29.243Z,25.30
2023-02-23T12:40:22.808Z,25.20
2023-02-23T12:43:18.818Z,25.20
2023-02-23T12:46:12.674Z,25.10
2023-02-23T12:49:12.585Z,25.10
2023-02-23T12:52:08.749Z,25.00
2023-02-23T12:54:57.541Z,25.00
2023-02-23T12:57:52.001Z,24.90
2023-02-23T13:00:47.408Z,24.80
2023-02-23T13:04:16.366Z,24.70
2023-02-23T13:07:10.294Z,24.70
2023-02-23T13:10:13.154Z,24.60
2023-02-23T13:13:11.562Z,24.50
2023-02-23T13:16:06.859Z,24.40
2023-02-23T13:19:08.704Z,24.40
2023-02-23T13:22:05.988Z,24.30
2023-02-23T13:24:57.067Z,24.30
2023-02-23T13:27:52.575Z,24.30
2023-02-23T13:30:47.656Z,24.20
2023-02-23T13:33:44.267Z,24.10
2023-02-23T13:36:35.517Z,24.00
2023-02-23T13:39:47.823Z,24.00
2023-02-23T13:42:46.519Z,23.80
2023-02-23T13:45:49.280Z,23.70
2023-02-23T13:48:56.853Z,23.60
2023-02-23T13:51:51.891Z,23.60
2023-02-23T13:54:56.464Z,23.40
2023-02-23T13:57:46.242Z,23.30
2023-02-23T14:00:35.180Z,23.30
2023-02-23T14:03:28.112Z,23.10
2023-02-23T14:06:19.069Z,23.00
2023-02-23T14:09:11.862Z,22.90
2023-02-23T14:12:19.489Z,22.80
2023-02-23T14:15:30.700Z,22.60
2023-02-23T14:18:34.127Z,22.50
2023-02-23T14:21:31.075Z,22.40
2023-02-23T14:24:24.315Z,22.30
2023-02-23T14:27:40.493Z,22.30
2023-02-23T14:30:44.416Z,22.20
2023-02-23T14:33:38.310Z,22.00
2023-02-23T14:36:35.799Z,21.90
2023-02-23T14:39:26.984Z,21.80
2023-02-23T14:42:24.986Z,21.80
2023-02-23T14:45:27.329Z,21.60
2023-02-23T14:48:17.225Z,21.60
2023-02-23T14:51:17.083Z,21.40
2023-02-23T14:54:15.734Z,21.30
2023-02-23T14:57:05.785Z,21.30
2023-02-23T14:59:59.733Z,21.20
2023-02-23T15:02:56.860Z,21.10
2023-02-23T15:05:47.777Z,21.10
2023-02-23T15:08:41.576Z,20.90
2023-02-23T15:11:31.603Z,20.90
2023-02-23T15:14:27.305Z,20.80
2023-02-23T15:17:21.789Z,20.80
2023-02-23T15:20:17.248Z,20.70
2023-02-23T15:23:06.845Z,20.60
2023-02-23T15:25:55.344Z,20.50
2023-02-23T15:28:45.586Z,20.50
2023-02-23T15:31:34.937Z,20.40
2023-02-23T15:34:26.578Z,20.30
2023-02-23T15:37:26.735Z,20.30
2023-02-23T15:40:17.224Z,20.30
2023-02-23T15:43:05.761Z,20.20
2023-02-23T15:45:56.002Z,20.20
2023-02-23T15:48:47.128Z,20.20
2023-02-23T15:51:39.825Z,20.10
2023-02-23T15:54:31.593Z,20.00
2023-02-23T15:57:22.847Z,19.90
2023-02-23T16:00:19.888Z,19.90
2023-02-23T16:03:09.715Z,19.90
2023-02-23T16:06:02.677Z,19.80
2023-02-23T16:08:59.999Z,19.80
2023-02-23T16:11:52.496Z,19.70
2023-02-23T16:14:47.564Z,19.70
2023-02-23T16:17:43.728Z,19.60
2023-02-23T16:20:38.426Z,19.60
2023-02-23T16:23:34.349Z,19.50
2023-02-23T16:26:29.558Z,19.50
2023-02-23T16:29:26.898Z,19.40
2023-02-23T16:32:19.650Z,19.40
2023-02-23T16:35:17.756Z,19.40
2023-02-23T16:38:14.330Z,19.30
2023-02-23T16:41:03.917Z,19.30
2023-02-23T16:43:55.295Z,19.30
2023-02-23T16:46:58.828Z,19.20
2023-02-23T16:49:47.147Z,19.20
2023-02-23T16:52:35.677Z,19.10
2023-02-23T16:55:26.625Z,19.10
2023-02-23T16:58:19.013Z,19.00
2023-02-23T17:01:08.833Z,19.00
2023-02-23T17:03:59.122Z,19.00
2023-02-23T17:06:48.485Z,18.90
2023-02-23T17:09:36.826Z,18.90
2023-02-23T17:12:25.059Z,18.90
2023-02-23T17:15:18.482Z,18.80
2023-02-23T17:18:08.196Z,18.80
2023-02-23T17:20:58.269Z,18.80
2023-02-23T17:23:51.027Z,18.80
2023-02-23T17:26:39.771Z,18.70
2023-02-23T17:29:28.026Z,18.70
2023-02-23T17:32:17.417Z,18.70
2023-02-23T17:35:08.215Z,18.70
2023-02-23T17:37:56.731Z,18.60
2023-02-23T17:40:44.976Z,18.60
2023-02-23T17:43:33.336Z,18.60
2023-02-23T17:46:21.676Z,18.60
2023-02-23T17:49:10.117Z,18.50
2023-02-23T17:51:59.757Z,18.50
2023-02-23T17:54:48.150Z,18.50
2023-02-23T17:57:36.514Z,18.50
2023-02-23T18:00:25.252Z,18.40
2023-02-23T18:03:13.682Z,18.40
2023-02-23T18:06:02.922Z,18.40
2023-02-23T18:08:52.501Z,18.30
2023-02-23T18:11:40.887Z,18.30
2023-02-23T18:14:29.262Z,18.30
2023-02-23T18:17:17.946Z,18.30
2023-02-23T18:20:07.661Z,18.30
2023-02-23T18:22:56.054Z,18.30
2023-02-23T18:25:46.084Z,18.30
2023-02-23T18:28:35.003Z,18.30
2023-02-23T18:31:25.664Z,18.30
2023-02-23T18:34:14.369Z,18.30
2023-02-23T18:37:03.682Z,18.20
2023-02-23T18:39:54.298Z,18.20
2023-02-23T18:42:43.967Z,18.20
2023-02-23T18:45:32.230Z,18.20
2023-02-23T18:48:20.597Z,18.20
2023-02-23T18:51:12.456Z,18.10
2023-02-23T18:54:02.299Z,18.10
2023-02-23T18:56:50.816Z,18.10
2023-02-23T18:59:40.420Z,18.10
2023-02-23T19:02:28.808Z,18.10
2023-02-23T19:05:20.898Z,18.10
2023-02-23T19:08:13.593Z,18.10
2023-02-23T19:11:01.911Z,18.10
2023-02-23T19:13:51.738Z,18.00
2023-02-23T19:16:42.106Z,18.00
2023-02-23T19:19:30.470Z,18.00
2023-02-23T19:22:18.721Z,18.00
2023-02-23T19:25:11.806Z,18.00
2023-02-23T19:28:00.298Z,18.00
2023-02-23T19:30:49.209Z,18.00
2023-02-23T19:33:39.189Z,18.00
2023-02-23T19:36:31.749Z,18.00
2023-02-23T19:39:20.097Z,18.00
2023-02-23T19:42:09.231Z,18.00
2023-02-23T19:44:57.623Z,18.00
2023-02-23T19:47:46.197Z,18.00
2023-02-23T19:50:36.809Z,17.90
2023-02-23T19:53:25.140Z,17.90
2023-02-23T19:56:16.590Z,17.90
2023-02-23T19:59:05.892Z,17.90
2023-02-23T20:01:54.206Z,17.90
2023-02-23T20:04:42.890Z,17.90
2023-02-23T20:07:32.556Z,17.80
2023-02-23T20:10:25.976Z,17.80
2023-02-23T20:13:14.338Z,17.90
2023-02-23T20:16:03.577Z,17.90
2023-02-23T20:18:52.089Z,17.90
2023-02-23T20:21:42.256Z,17.90
2023-02-23T20:24:32.001Z,18.00
2023-02-23T20:27:22.774Z,17.90
2023-02-23T20:30:13.092Z,17.90
2023-02-23T20:33:02.863Z,17.80
2023-02-23T20:35:51.341Z,17.80
2023-02-23T20:38:39.875Z,17.80
2023-02-23T20:41:31.620Z,17.80
2023-02-23T20:44:20.174Z,17.80
2023-02-23T20:47:10.259Z,17.80
2023-02-23T20:49:58.463Z,17.80
2023-02-23T20:52:46.864Z,17.80
2023-02-23T20:55:35.768Z,17.80
2023-02-23T20:58:26.131Z,17.80
2023-02-23T21:01:16.425Z,17.80
2023-02-23T21:04:05.061Z,17.70
2023-02-23T21:06:53.568Z,17.70
2023-02-23T21:09:42.575Z,17.70
2023-02-23T21:12:31.352Z,17.70
2023-02-23T21:15:20.991Z,17.70
2023-02-23T21:18:10.347Z,17.70
2023-02-23T21:21:09.640Z,17.70
2023-02-23T21:23:58.298Z,17.60
2023-02-23T21:26:47.979Z,17.60
2023-02-23T21:29:36.544Z,17.60
2023-02-23T21:32:27.134Z,17.70
2023-02-23T21:35:15.846Z,17.60
2023-02-23T21:38:04.349Z,17.60
2023-02-23T21:40:52.944Z,17.50
2023-02-23T21:43:43.258Z,17.50
2023-02-23T21:46:31.580Z,17.50
2023-02-23T21:49:21.438Z,17.50
2023-02-23T21:52:10.099Z,17.50
2023-02-23T21:55:00.326Z,17.50
2023-02-23T21:57:49.544Z,17.40
2023-02-23T22:00:37.774Z,17.50
2023-02-23T22:03:27.320Z,17.40
2023-02-23T22:06:19.402Z,17.40
2023-02-23T22:09:10.874Z,17.40
2023-02-23T22:11:59.442Z,17.40
2023-02-23T22:14:47.735Z,17.40
2023-02-23T22:17:36.178Z,17.40
2023-02-23T22:20:25.443Z,17.40
2023-02-23T22:23:15.110Z,17.30
2023-02-23T22:26:03.645Z,17.30
2023-02-23T22:28:52.072Z,17.30
2023-02-23T22:31:41.206Z,17.30
2023-02-23T22:34:29.714Z,17.30
2023-02-23T22:37:22.018Z,17.30
2023-02-23T22:40:17.031Z,17.30
2023-02-23T22:43:06.666Z,17.30
2023-02-23T22:45:55.852Z,17.30
2023-02-23T22:48:45.539Z,17.20
2023-02-23T22:51:33.872Z,17.20
2023-02-23T22:54:24.179Z,17.20
2023-02-23T22:57:14.352Z,17.20
2023-02-23T23:00:10.362Z,17.20
2023-02-23T23:02:58.686Z,17.20
2023-02-23T23:05:51.051Z,17.20
2023-02-23T23:08:42.220Z,17.20
2023-02-23T23:11:30.645Z,17.20
2023-02-23T23:14:20.664Z,17.10
2023-02-23T23:17:09.668Z,17.30
2023-02-23T23:20:00.315Z,17.20
2023-02-23T23:22:49.972Z,17.10
2023-02-23T23:25:41.930Z,17.20
2023-02-23T23:28:30.154Z,17.10
2023-02-23T23:31:23.006Z,17.10
2023-02-23T23:34:12.991Z,17.10
2023-02-23T23:37:01.356Z,17.10
2023-02-23T23:40:00.338Z,17.10
2023-02-23T23:42:48.654Z,17.10
2023-02-23T23:45:40.766Z,17.10
2023-02-23T23:48:30.524Z,17.10
2023-02-23T23:51:19.058Z,17.10
2023-02-23T23:54:09.786Z,17.00
2023-02-23T23:56:58.879Z,17.00
2023-02-23T23:59:49.003Z,17.00
